createdAt,value
2022-08-26T00:00:35.874Z,261894.38
2022-08-26T00:01:35.869Z,261894.38
2022-08-26T00:02:36.015Z,261894.38
2022-08-26T00:03:35.904Z,261894.38
2022-08-26T00:04:35.822Z,261894.38
2022-08-26T00:05:35.829Z,261894.38
2022-08-26T00:06:35.810Z,261894.38
2022-08-26T00:07:35.879Z,261894.38
2022-08-26T00:08:35.802Z,261894.38
2022-08-26T00:09:39.022Z,261894.38
2022-08-26T00:10:35.774Z,261894.38
2022-08-26T00:11:35.795Z,261894.38
2022-08-26T00:12:37.779Z,261894.38
2022-08-26T00:13:35.754Z,261894.38
2022-08-26T00:14:35.749Z,261894.38
2022-08-26T00:15:35.758Z,261894.38
2022-08-26T00:16:35.853Z,261894.38
2022-08-26T00:17:35.720Z,261894.38
2022-08-26T00:18:38.685Z,261894.38
2022-08-26T00:19:35.685Z,261894.38
2022-08-26T00:20:35.674Z,261894.38
2022-08-26T00:21:35.673Z,261894.38
2022-08-26T00:22:35.677Z,261894.38
2022-08-26T00:23:35.645Z,261894.38
2022-08-26T00:24:35.617Z,261894.38
2022-08-26T00:25:35.643Z,261894.38
2022-08-26T00:26:35.642Z,261894.38
2022-08-26T00:27:35.633Z,261894.38
2022-08-26T00:28:35.608Z,261894.38
2022-08-26T00:29:37.467Z,261894.38
2022-08-26T00:30:35.574Z,261894.38
2022-08-26T00:31:35.611Z,261894.38
2022-08-26T00:32:35.620Z,261894.38
2022-08-26T00:33:35.610Z,261894.38
2022-08-26T00:34:35.706Z,261894.38
2022-08-26T00:35:36.203Z,261894.38
2022-08-26T00:36:35.657Z,261894.38
2022-08-26T00:37:35.505Z,261894.38
2022-08-26T00:38:35.483Z,261894.38
2022-08-26T00:39:35.486Z,261894.38
2022-08-26T00:40:35.604Z,261894.38
2022-08-26T00:41:35.458Z,261894.38
2022-08-26T00:42:35.454Z,261894.38
2022-08-26T00:43:46.325Z,261894.38
2022-08-26T00:44:35.597Z,261894.38
2022-08-26T00:45:35.444Z,261894.38
2022-08-26T00:46:35.405Z,261894.38
2022-08-26T00:47:35.412Z,261894.38
2022-08-26T00:48:35.381Z,261894.38
2022-08-26T00:49:35.381Z,261894.38
2022-08-26T00:50:35.373Z,261894.38
2022-08-26T00:51:35.368Z,261894.38
2022-08-26T00:52:35.369Z,261894.38
2022-08-26T00:53:35.323Z,261894.38
2022-08-26T00:54:35.362Z,261894.38
2022-08-26T00:55:38.217Z,261894.38
2022-08-26T00:56:35.333Z,261894.38
2022-08-26T00:57:35.335Z,261894.38
2022-08-26T00:58:35.319Z,261894.38
2022-08-26T00:59:35.264Z,261894.38
2022-08-26T01:00:35.270Z,261894.38
2022-08-26T01:01:35.362Z,261894.38
2022-08-26T01:02:35.467Z,261894.38
2022-08-26T01:03:35.291Z,261894.38
2022-08-26T01:04:35.289Z,261894.38
2022-08-26T01:05:35.230Z,261894.38
2022-08-26T01:06:35.210Z,261894.38
2022-08-26T01:07:35.200Z,261894.38
2022-08-26T01:08:35.208Z,261894.38
2022-08-26T01:09:35.185Z,261894.38
2022-08-26T01:10:35.173Z,261894.38
2022-08-26T01:11:35.182Z,261894.38
2022-08-26T01:12:35.145Z,261894.38
2022-08-26T01:13:35.146Z,261894.38
2022-08-26T01:14:35.145Z,261894.38
2022-08-26T01:15:35.121Z,261894.38
2022-08-26T01:16:35.173Z,261894.38
2022-08-26T01:17:35.075Z,261894.38
2022-08-26T01:18:35.199Z,261894.38
2022-08-26T01:19:35.063Z,261894.38
2022-08-26T01:20:35.086Z,261894.38
2022-08-26T01:21:35.094Z,261894.38
2022-08-26T01:22:35.049Z,261894.38
2022-08-26T01:23:35.041Z,261894.38
2022-08-26T01:24:35.022Z,261894.38
2022-08-26T01:25:35.026Z,261894.38
2022-08-26T01:26:35.005Z,261894.38
2022-08-26T01:27:34.990Z,261894.38
2022-08-26T01:28:35.019Z,261894.38
2022-08-26T01:29:34.999Z,261894.38
2022-08-26T01:30:34.994Z,261894.38
2022-08-26T01:31:34.988Z,261894.38
2022-08-26T01:32:34.954Z,261894.38
2022-08-26T01:33:42.130Z,261894.38
2022-08-26T01:34:34.937Z,261894.38
2022-08-26T01:35:34.894Z,261894.38
2022-08-26T01:36:34.954Z,261894.38
2022-08-26T01:37:34.878Z,261894.38
2022-08-26T01:38:34.914Z,261894.38
2022-08-26T01:39:34.898Z,261894.38
2022-08-26T01:40:34.866Z,261894.38
2022-08-26T01:41:34.860Z,261894.38
2022-08-26T01:42:34.837Z,261894.38
2022-08-26T01:43:34.846Z,261894.38
2022-08-26T01:44:35.023Z,261894.38
2022-08-26T01:45:34.855Z,261894.38
2022-08-26T01:46:34.816Z,261894.38
2022-08-26T01:47:34.790Z,261894.38
2022-08-26T01:48:34.793Z,261894.38
2022-08-26T01:49:34.804Z,261894.38
2022-08-26T01:50:34.817Z,261894.38
2022-08-26T01:51:34.729Z,261894.38
2022-08-26T01:52:34.757Z,261894.38
2022-08-26T01:53:34.764Z,261894.38
2022-08-26T01:54:34.728Z,261894.38
2022-08-26T01:55:34.696Z,261894.38
2022-08-26T01:56:36.643Z,261894.38
2022-08-26T01:57:34.675Z,261894.38
2022-08-26T01:58:34.677Z,261894.38
2022-08-26T01:59:34.690Z,261894.38
2022-08-26T02:00:34.762Z,261894.38
2022-08-26T02:01:34.648Z,261894.38
2022-08-26T02:02:34.663Z,261894.38
2022-08-26T02:03:34.651Z,261894.38
2022-08-26T02:04:34.654Z,261894.38
2022-08-26T02:05:34.638Z,261894.38
2022-08-26T02:06:34.581Z,261894.38
2022-08-26T02:07:34.606Z,261894.38
2022-08-26T02:08:34.599Z,261894.38
2022-08-26T02:09:41.137Z,261894.38
2022-08-26T02:10:34.603Z,261894.38
2022-08-26T02:11:34.559Z,261894.38
2022-08-26T02:12:34.592Z,261894.38
2022-08-26T02:13:35.117Z,261894.38
2022-08-26T02:14:34.514Z,261894.38
2022-08-26T02:15:34.520Z,261894.38
2022-08-26T02:16:34.630Z,261894.38
2022-08-26T02:17:34.487Z,261894.38
2022-08-26T02:18:34.466Z,261894.38
2022-08-26T02:19:34.447Z,261894.38
2022-08-26T02:20:34.501Z,261894.38
2022-08-26T02:21:34.635Z,261894.38
2022-08-26T02:22:34.456Z,261894.38
2022-08-26T02:24:28.804Z,261894.38
2022-08-26T02:26:40.412Z,261894.38
2022-08-26T02:27:41.108Z,261894.38
2022-08-26T02:30:23.276Z,261894.38
2022-08-26T02:31:24.299Z,261894.38
2022-08-26T02:32:24.269Z,261894.38
2022-08-26T02:33:24.269Z,261894.38
2022-08-26T02:34:24.316Z,261894.38
2022-08-26T02:35:24.392Z,261894.38
2022-08-26T02:36:24.200Z,261894.38
2022-08-26T02:37:24.259Z,261894.38
2022-08-26T02:38:24.616Z,261894.38
2022-08-26T02:39:24.184Z,261894.38
2022-08-26T02:40:24.661Z,261894.38
2022-08-26T02:41:24.174Z,261894.38
2022-08-26T02:42:24.160Z,261894.38
2022-08-26T02:43:31.318Z,261894.38
2022-08-26T02:44:24.138Z,261894.38
2022-08-26T02:45:24.146Z,261894.38
2022-08-26T02:46:30.071Z,261894.38
2022-08-26T02:47:24.839Z,261894.38
2022-08-26T02:48:24.074Z,261894.38
2022-08-26T02:49:24.078Z,261894.38
2022-08-26T02:50:24.071Z,261894.38
2022-08-26T02:51:24.086Z,261894.38
2022-08-26T02:52:24.040Z,261894.38
2022-08-26T02:53:25.359Z,261894.38
2022-08-26T02:54:24.003Z,261894.38
2022-08-26T02:55:24.631Z,261894.38
2022-08-26T02:56:24.009Z,261894.38
2022-08-26T02:57:24.030Z,261894.38
2022-08-26T02:58:23.983Z,261894.38
2022-08-26T02:59:24.439Z,261894.38
2022-08-26T03:00:24.036Z,261894.38
2022-08-26T03:02:14.985Z,261894.38
2022-08-26T03:03:15.880Z,261894.38
2022-08-26T03:04:15.917Z,261894.38
2022-08-26T03:05:15.876Z,261894.38
2022-08-26T03:06:15.879Z,261894.38
2022-08-26T03:07:15.902Z,261894.38
2022-08-26T03:08:15.979Z,261894.38
2022-08-26T03:09:18.559Z,261894.38
2022-08-26T03:10:15.829Z,261894.38
2022-08-26T03:11:15.874Z,261894.38
2022-08-26T03:12:15.791Z,261894.38
2022-08-26T03:13:15.872Z,261894.38
2022-08-26T03:14:15.782Z,261894.38
2022-08-26T03:15:17.813Z,261894.38
2022-08-26T03:16:15.814Z,261894.38
2022-08-26T03:17:15.877Z,261894.38
2022-08-26T03:18:15.755Z,261894.38
2022-08-26T03:19:17.513Z,261894.38
2022-08-26T03:20:15.731Z,261894.38
2022-08-26T03:21:15.694Z,261894.38
2022-08-26T03:22:15.706Z,261894.38
2022-08-26T03:23:15.701Z,261894.38
2022-08-26T03:24:15.697Z,261894.38
2022-08-26T03:25:15.662Z,261894.38
2022-08-26T03:26:15.844Z,261894.38
2022-08-26T03:27:15.648Z,261894.38
2022-08-26T03:28:15.636Z,261894.38
2022-08-26T03:29:15.624Z,261894.38
2022-08-26T03:30:15.615Z,261894.38
2022-08-26T03:31:15.695Z,261894.38
2022-08-26T03:32:15.594Z,261894.38
2022-08-26T03:33:15.776Z,261894.38
2022-08-26T03:34:15.568Z,261894.38
2022-08-26T03:35:15.664Z,261894.38
2022-08-26T03:36:15.588Z,261894.38
2022-08-26T03:37:16.211Z,261894.38
2022-08-26T03:38:15.533Z,261894.38
2022-08-26T03:39:15.652Z,261894.38
2022-08-26T03:40:15.542Z,261894.38
2022-08-26T03:41:16.135Z,261894.38
2022-08-26T03:42:15.474Z,261894.38
2022-08-26T03:43:15.495Z,261894.38
2022-08-26T03:44:15.490Z,261894.38
2022-08-26T03:45:15.520Z,261894.38
2022-08-26T03:46:15.494Z,261894.38
2022-08-26T03:47:15.449Z,261894.38
2022-08-26T03:48:15.455Z,261894.38
2022-08-26T03:49:15.436Z,261894.38
2022-08-26T03:50:15.432Z,261894.38
2022-08-26T03:51:18.314Z,261894.38
2022-08-26T03:52:16.098Z,261894.38
2022-08-26T03:53:15.409Z,261894.38
2022-08-26T03:54:15.396Z,261894.38
2022-08-26T03:55:15.366Z,261894.38
2022-08-26T03:56:15.341Z,261894.38
2022-08-26T03:57:15.350Z,261894.38
2022-08-26T03:58:15.307Z,261894.38
2022-08-26T03:59:15.357Z,261894.38
2022-08-26T04:00:15.278Z,261894.38
2022-08-26T04:01:15.678Z,261894.38
2022-08-26T04:02:15.246Z,261894.38
2022-08-26T04:03:18.611Z,261894.38
2022-08-26T04:04:15.606Z,261894.38
2022-08-26T04:05:15.203Z,261894.38
2022-08-26T04:06:15.173Z,261894.38
2022-08-26T04:07:15.203Z,261894.38
2022-08-26T04:08:15.221Z,261894.38
2022-08-26T04:09:15.170Z,261894.38
2022-08-26T04:10:15.146Z,261894.38
2022-08-26T04:11:15.137Z,261894.38
2022-08-26T04:12:15.149Z,261894.38
2022-08-26T04:13:15.160Z,261894.38
2022-08-26T04:14:17.601Z,261894.38
2022-08-26T04:15:15.134Z,261894.38
2022-08-26T04:16:15.151Z,261894.38
2022-08-26T04:17:15.078Z,261894.38
2022-08-26T04:18:15.045Z,261894.38
2022-08-26T04:19:15.092Z,261894.38
2022-08-26T04:20:16.169Z,261894.38
2022-08-26T04:21:15.363Z,261894.38
2022-08-26T04:22:15.073Z,261894.38
2022-08-26T04:23:15.013Z,261894.38
2022-08-26T04:24:15.028Z,261894.38
2022-08-26T04:25:14.990Z,261894.38
2022-08-26T04:26:15.009Z,261894.38
2022-08-26T04:27:14.965Z,261894.38
2022-08-26T04:28:14.976Z,261894.38
2022-08-26T04:29:14.957Z,261894.38
2022-08-26T04:30:14.971Z,261894.38
2022-08-26T04:31:14.970Z,261894.38
2022-08-26T04:32:14.933Z,261894.38
2022-08-26T04:33:14.944Z,261894.38
2022-08-26T04:34:14.930Z,261894.38
2022-08-26T04:35:14.905Z,261894.38
2022-08-26T04:36:14.864Z,261894.38
2022-08-26T04:37:14.873Z,261894.38
2022-08-26T04:38:14.875Z,261894.38
2022-08-26T04:39:14.890Z,261894.38
2022-08-26T04:40:14.873Z,261894.38
2022-08-26T04:41:17.089Z,261894.38
2022-08-26T04:42:14.802Z,261894.38
2022-08-26T04:43:14.850Z,261894.38
2022-08-26T04:44:14.805Z,261894.38
2022-08-26T04:45:14.816Z,261894.38
2022-08-26T04:46:14.891Z,261894.38
2022-08-26T04:47:14.798Z,261894.38
2022-08-26T04:48:16.802Z,261894.38
2022-08-26T04:49:14.794Z,261894.38
2022-08-26T04:50:14.871Z,261894.38
2022-08-26T04:51:14.753Z,261894.38
2022-08-26T04:52:14.726Z,261894.38
2022-08-26T04:53:14.722Z,261894.38
2022-08-26T04:54:14.700Z,261894.38
2022-08-26T04:55:14.701Z,261894.38
2022-08-26T04:56:14.711Z,261894.38
2022-08-26T04:57:14.701Z,261894.38
2022-08-26T04:58:14.717Z,261894.38
2022-08-26T04:59:16.674Z,261894.38
2022-08-26T05:00:14.822Z,261894.38
2022-08-26T05:02:07.252Z,261894.38
2022-08-26T05:03:10.218Z,261894.38
2022-08-26T05:04:08.101Z,261894.38
2022-08-26T05:05:59.778Z,261894.38
2022-08-26T05:07:02.305Z,261894.38
2022-08-26T05:08:00.607Z,261894.38
2022-08-26T05:09:02.124Z,261894.38
2022-08-26T05:10:00.321Z,261894.38
2022-08-26T05:11:00.425Z,261894.38
2022-08-26T05:12:00.477Z,261894.38
2022-08-26T05:13:00.314Z,261894.38
2022-08-26T05:14:02.333Z,261894.38
2022-08-26T05:15:00.372Z,261894.38
2022-08-26T05:16:01.182Z,261894.38
2022-08-26T05:17:00.272Z,261894.38
2022-08-26T05:18:00.256Z,261894.38
2022-08-26T05:19:00.328Z,261894.38
2022-08-26T05:20:00.225Z,261894.38
2022-08-26T05:21:00.266Z,261894.38
2022-08-26T05:22:00.608Z,261894.38
2022-08-26T05:23:01.605Z,261894.38
2022-08-26T05:24:00.197Z,261894.38
2022-08-26T05:25:00.320Z,261894.38
2022-08-26T05:26:00.953Z,261894.38
2022-08-26T05:27:00.253Z,261894.38
2022-08-26T05:28:09.937Z,261894.38
2022-08-26T05:29:24.194Z,261894.38
2022-08-26T05:30:00.145Z,261894.38
2022-08-26T05:31:00.186Z,261894.38
2022-08-26T05:32:07.004Z,261894.38
2022-08-26T05:33:05.252Z,261894.38
2022-08-26T05:34:00.126Z,261894.38
2022-08-26T05:36:10.729Z,261894.38
2022-08-26T05:37:11.414Z,261894.38
2022-08-26T05:38:39.240Z,261894.38
2022-08-26T05:39:11.473Z,261894.38
2022-08-26T05:41:27.737Z,261894.38
2022-08-26T05:43:28.430Z,261894.38
2022-08-26T05:45:46.200Z,261894.38
2022-08-26T05:46:46.519Z,261894.38
2022-08-26T05:47:46.212Z,261894.38
2022-08-26T05:48:46.287Z,261894.38
2022-08-26T05:49:51.581Z,261894.38
2022-08-26T05:51:42.169Z,261894.38
2022-08-26T05:52:43.128Z,261894.38
2022-08-26T05:53:43.753Z,261894.38
2022-08-26T05:55:56.577Z,261894.38
2022-08-26T05:56:55.430Z,261894.38
2022-08-26T05:58:48.337Z,261894.38
2022-08-26T06:01:19.998Z,261894.38
2022-08-26T06:03:14.980Z,261894.38
2022-08-26T06:05:26.979Z,261894.38
2022-08-26T06:06:33.714Z,261894.38
2022-08-26T06:07:27.572Z,261894.38
2022-08-26T06:12:29.786Z,261894.38
2022-08-26T06:13:31.874Z,261894.38
2022-08-26T06:14:29.978Z,261894.38
2022-08-26T06:16:20.257Z,261894.38
2022-08-26T06:17:59.197Z,261894.38
2022-08-26T06:19:42.350Z,261894.38
2022-08-26T06:19:47.345Z,261894.38
2022-08-26T06:22:00.873Z,261894.38
2022-08-26T06:23:01.681Z,261894.38
2022-08-26T06:24:01.761Z,261894.38
2022-08-26T06:27:03.343Z,261894.38
2022-08-26T06:29:24.119Z,261894.38
2022-08-26T06:32:21.053Z,261894.38
2022-08-26T06:33:22.079Z,261894.38
2022-08-26T06:34:22.336Z,261894.38
2022-08-26T06:35:22.853Z,261894.38
2022-08-26T06:36:28.585Z,261894.38
2022-08-26T06:39:15.860Z,261894.38
2022-08-26T06:40:16.927Z,261894.38
2022-08-26T06:41:16.974Z,261894.38
2022-08-26T06:42:19.310Z,261894.38
2022-08-26T06:44:09.380Z,261894.38
2022-08-26T06:45:10.354Z,261894.38
2022-08-26T06:46:10.486Z,261894.38
2022-08-26T06:47:10.337Z,261894.38
2022-08-26T06:48:10.445Z,261894.38
2022-08-26T06:49:10.533Z,261894.38
2022-08-26T06:51:25.950Z,261894.38
2022-08-26T06:55:02.709Z,261894.38
2022-08-26T06:56:04.174Z,261894.38
2022-08-26T06:57:03.552Z,261894.38
2022-08-26T06:58:03.539Z,261894.38
2022-08-26T06:59:03.683Z,261894.38
2022-08-26T07:00:04.490Z,261894.38
2022-08-26T07:01:11.429Z,261894.38
2022-08-26T07:02:03.486Z,261894.38
2022-08-26T07:03:03.524Z,261894.38
2022-08-26T07:04:04.348Z,261894.38
2022-08-26T07:06:15.536Z,261894.38
2022-08-26T07:06:21.504Z,261894.38
2022-08-26T07:07:21.968Z,261894.38
2022-08-26T07:09:15.413Z,261894.38
2022-08-26T07:11:08.007Z,261894.38
2022-08-26T07:12:09.016Z,261894.38
2022-08-26T07:14:02.020Z,261894.38
2022-08-26T07:15:03.047Z,261894.38
2022-08-26T07:16:04.223Z,261894.38
2022-08-26T07:17:03.066Z,261894.38
2022-08-26T07:18:03.130Z,261894.38
2022-08-26T07:19:03.451Z,261894.38
2022-08-26T07:20:02.949Z,261894.38
2022-08-26T07:21:02.987Z,261894.38
2022-08-26T07:22:03.519Z,261894.38
2022-08-26T07:23:04.082Z,261894.38
2022-08-26T07:25:19.210Z,261894.38
2022-08-26T07:26:19.608Z,261894.38
2022-08-26T07:27:19.618Z,261894.38
2022-08-26T07:28:19.681Z,261894.38
2022-08-26T07:30:32.854Z,261894.38
2022-08-26T07:31:39.359Z,261894.38
2022-08-26T07:32:34.446Z,261894.38
2022-08-26T07:33:33.804Z,261894.38
2022-08-26T07:35:44.163Z,261894.38
2022-08-26T07:40:17.635Z,261894.38
2022-08-26T07:42:50.951Z,261894.38
2022-08-26T07:45:13.955Z,261894.38
2022-08-26T07:48:18.551Z,261894.38
2022-08-26T07:50:48.932Z,261894.38
2022-08-26T07:52:27.034Z,261894.38
2022-08-26T07:54:19.888Z,261894.38
2022-08-26T07:56:11.330Z,261894.38
2022-08-26T07:58:04.828Z,261894.38
2022-08-26T07:59:14.089Z,261894.38
2022-08-26T08:01:11.123Z,261894.38
2022-08-26T08:03:44.815Z,261894.38
2022-08-26T08:05:58.679Z,0.00
2022-08-26T08:06:59.696Z,0.00
2022-08-26T08:08:17.347Z,0.00
2022-08-26T08:08:59.664Z,0.00
2022-08-26T08:09:59.640Z,0.00
2022-08-26T08:10:59.745Z,0.00
2022-08-26T08:11:59.626Z,0.00
2022-08-26T08:12:59.646Z,0.00
2022-08-26T08:13:59.609Z,0.00
2022-08-26T08:14:59.591Z,0.00
2022-08-26T08:15:59.558Z,0.00
2022-08-26T08:16:59.632Z,0.00
2022-08-26T08:18:15.299Z,0.00
2022-08-26T08:18:59.581Z,0.00
2022-08-26T08:19:59.565Z,0.00
2022-08-26T08:21:19.541Z,0.00
2022-08-26T08:22:01.909Z,0.00
2022-08-26T08:24:57.079Z,303.75
2022-08-26T08:25:58.121Z,309.38
2022-08-26T08:26:58.043Z,309.38
2022-08-26T08:27:58.029Z,326.25
2022-08-26T08:28:58.012Z,337.50
2022-08-26T08:29:58.052Z,348.75
2022-08-26T08:30:58.083Z,343.12
2022-08-26T08:31:58.761Z,326.25
2022-08-26T08:32:57.987Z,320.62
2022-08-26T08:33:58.000Z,309.38
2022-08-26T08:34:57.959Z,309.38
2022-08-26T08:35:57.968Z,309.38
2022-08-26T08:36:57.965Z,309.38
2022-08-26T08:37:57.977Z,315.00
2022-08-26T08:38:58.007Z,326.25
2022-08-26T08:43:25.251Z,309.38
2022-08-26T08:44:10.465Z,309.38
2022-08-26T08:46:43.539Z,303.75
2022-08-26T08:47:03.952Z,309.38
2022-08-26T08:48:03.933Z,309.38
2022-08-26T08:50:57.750Z,315.00
2022-08-26T08:51:58.247Z,331.88
2022-08-26T08:52:58.400Z,303.75
2022-08-26T08:53:58.421Z,286.88
2022-08-26T08:54:57.964Z,281.25
2022-08-26T08:55:57.972Z,286.88
2022-08-26T08:57:12.646Z,281.25
2022-08-26T08:58:02.047Z,281.25
2022-08-26T08:58:57.988Z,286.88
2022-08-26T09:00:14.576Z,298.12
2022-08-26T09:01:35.789Z,326.25
2022-08-26T09:02:54.440Z,337.50
2022-08-26T09:02:59.397Z,354.38
2022-08-26T09:03:59.412Z,371.25
2022-08-26T09:05:31.245Z,393.75
2022-08-26T09:05:59.378Z,450.00
2022-08-26T09:08:19.827Z,326.25
2022-08-26T09:10:28.112Z,348.75
2022-08-26T09:12:40.514Z,466.88
2022-08-26T09:14:54.766Z,1299.38
2022-08-26T09:15:54.990Z,849.38
2022-08-26T09:16:56.049Z,517.50
2022-08-26T09:17:54.656Z,483.75
2022-08-26T09:18:54.778Z,444.38
2022-08-26T09:19:54.630Z,410.62
2022-08-26T09:20:54.660Z,382.50
2022-08-26T09:21:54.749Z,360.00
2022-08-26T09:22:55.190Z,343.12
2022-08-26T09:23:54.607Z,331.88
2022-08-26T09:24:55.652Z,320.62
2022-08-26T09:26:54.563Z,315.00
2022-08-26T09:27:54.634Z,303.75
2022-08-26T09:28:54.806Z,303.75
2022-08-26T09:29:59.911Z,309.38
2022-08-26T09:30:54.568Z,315.00
2022-08-26T09:31:54.667Z,320.62
2022-08-26T09:32:56.729Z,326.25
2022-08-26T09:35:04.967Z,343.12
2022-08-26T09:36:05.854Z,348.75
2022-08-26T09:37:05.902Z,354.38
2022-08-26T09:38:07.000Z,365.62
2022-08-26T09:39:05.835Z,376.88
2022-08-26T09:41:00.952Z,393.75
2022-08-26T09:42:19.172Z,393.75
2022-08-26T09:44:17.517Z,405.00
2022-08-26T09:47:20.520Z,517.50
2022-08-26T09:49:36.056Z,348.75
2022-08-26T09:51:24.500Z,331.88
2022-08-26T09:52:25.422Z,365.62
2022-08-26T09:54:15.864Z,416.25
2022-08-26T09:55:56.040Z,466.88
2022-08-26T09:56:16.797Z,500.62
2022-08-26T09:57:16.788Z,500.62
2022-08-26T09:58:16.978Z,551.25
2022-08-26T10:00:07.228Z,945.00
2022-08-26T10:02:29.755Z,1276.88
2022-08-26T10:06:59.571Z,195271.88
2022-08-26T10:08:00.622Z,195271.88
2022-08-26T10:09:00.442Z,195271.88
2022-08-26T10:10:00.448Z,195271.88
2022-08-26T10:11:00.440Z,195271.88
2022-08-26T10:12:00.461Z,195271.88
2022-08-26T10:13:00.649Z,195271.88
2022-08-26T10:14:00.482Z,195271.88
2022-08-26T10:15:00.444Z,195271.88
2022-08-26T10:16:00.635Z,195271.88
2022-08-26T10:17:00.393Z,195271.88
2022-08-26T10:18:00.371Z,195271.88
2022-08-26T10:19:00.822Z,195271.88
2022-08-26T10:20:00.638Z,195271.88
2022-08-26T10:21:00.326Z,195271.88
2022-08-26T10:22:00.359Z,195271.88
2022-08-26T10:23:00.677Z,195271.88
2022-08-26T10:24:07.565Z,195271.88
2022-08-26T10:25:00.356Z,195271.88
2022-08-26T10:26:00.317Z,195271.88
2022-08-26T10:27:00.669Z,195271.88
2022-08-26T10:28:02.075Z,195271.88
2022-08-26T10:29:10.861Z,195271.88
2022-08-26T10:30:00.311Z,195271.88
2022-08-26T10:31:23.025Z,195271.88
2022-08-26T10:32:07.915Z,195271.88
2022-08-26T10:33:00.265Z,195271.88
2022-08-26T10:34:00.753Z,195271.88
2022-08-26T10:35:00.327Z,195271.88
2022-08-26T10:36:06.194Z,195271.88
2022-08-26T10:37:14.567Z,195271.88
2022-08-26T10:38:00.269Z,195271.88
2022-08-26T10:39:00.205Z,195271.88
2022-08-26T10:40:00.251Z,195271.88
2022-08-26T10:41:00.172Z,195271.88
2022-08-26T10:42:00.166Z,195271.88
2022-08-26T10:43:00.314Z,195271.88
2022-08-26T10:44:00.303Z,195271.88
2022-08-26T10:45:00.803Z,195271.88
2022-08-26T10:46:00.234Z,195271.88
2022-08-26T10:47:07.569Z,195271.88
2022-08-26T10:48:00.174Z,195271.88
2022-08-26T10:49:00.233Z,195271.88
2022-08-26T10:50:03.283Z,195271.88
2022-08-26T10:51:00.319Z,195271.88
2022-08-26T10:52:16.514Z,195271.88
2022-08-26T10:53:00.163Z,195271.88
2022-08-26T10:54:22.094Z,195271.88
2022-08-26T10:55:59.763Z,195271.88
2022-08-26T10:56:05.684Z,195271.88
2022-08-26T10:57:05.693Z,195271.88
2022-08-26T10:58:09.087Z,195271.88
2022-08-26T11:00:02.147Z,2874.38
2022-08-26T11:01:53.580Z,2874.38
2022-08-26T11:04:38.058Z,2874.38
2022-08-26T11:06:50.927Z,2874.38
2022-08-26T11:07:50.676Z,1406.25
2022-08-26T11:08:50.685Z,2874.38
2022-08-26T11:09:50.693Z,2874.38
2022-08-26T11:10:51.674Z,2874.38
2022-08-26T11:11:50.636Z,1321.88
2022-08-26T11:12:50.621Z,2874.38
2022-08-26T11:13:50.598Z,2874.38
2022-08-26T11:14:56.133Z,2874.38
2022-08-26T11:15:51.124Z,2874.38
2022-08-26T11:16:52.786Z,2874.38
2022-08-26T11:18:17.148Z,2874.38
2022-08-26T11:18:51.315Z,2874.38
2022-08-26T11:20:00.681Z,2874.38
2022-08-26T11:20:50.631Z,2874.38
2022-08-26T11:21:56.766Z,2874.38
2022-08-26T11:24:36.626Z,185686.88
2022-08-26T11:26:20.378Z,185686.88
2022-08-26T11:26:56.375Z,185686.88
2022-08-26T11:27:37.525Z,185686.88
2022-08-26T11:29:51.814Z,5.62
2022-08-26T11:30:57.806Z,5.62
2022-08-26T11:31:52.197Z,5.62
2022-08-26T11:32:52.132Z,5.62
2022-08-26T11:33:52.164Z,5.62
2022-08-26T11:34:52.083Z,5.62
2022-08-26T11:35:52.387Z,5.62
2022-08-26T11:36:53.099Z,5.62
2022-08-26T11:37:52.758Z,5.62
2022-08-26T11:38:52.080Z,5.62
2022-08-26T11:41:03.364Z,585.00
2022-08-26T11:42:04.371Z,596.25
2022-08-26T11:43:04.688Z,607.50
2022-08-26T11:44:12.693Z,618.75
2022-08-26T11:45:12.606Z,843.75
2022-08-26T11:46:04.406Z,1395.00
2022-08-26T11:47:04.314Z,2874.38
2022-08-26T11:48:04.264Z,2874.38
2022-08-26T11:49:04.321Z,1400.62
2022-08-26T11:50:04.298Z,1428.75
2022-08-26T11:51:04.432Z,2874.38
2022-08-26T11:52:05.484Z,2874.38
2022-08-26T11:53:04.236Z,2874.38
2022-08-26T11:54:04.230Z,2874.38
2022-08-26T11:55:04.367Z,2874.38
2022-08-26T11:57:15.413Z,2874.38
2022-08-26T11:58:26.033Z,2874.38
2022-08-26T11:59:15.562Z,2874.38
2022-08-26T12:00:20.490Z,2874.38
2022-08-26T12:01:15.782Z,2874.38
2022-08-26T12:02:16.084Z,2874.38
2022-08-26T12:03:15.607Z,2874.38
2022-08-26T12:04:15.726Z,2874.38
2022-08-26T12:06:06.025Z,2874.38
2022-08-26T12:08:18.170Z,2874.38
2022-08-26T12:09:34.601Z,2874.38
2022-08-26T12:10:18.800Z,2874.38
2022-08-26T12:11:18.841Z,2874.38
2022-08-26T12:12:18.844Z,2874.38
2022-08-26T12:13:29.514Z,2874.38
2022-08-26T12:14:18.773Z,2874.38
2022-08-26T12:15:18.777Z,579.38
2022-08-26T12:16:20.277Z,511.88
2022-08-26T12:17:18.760Z,511.88
2022-08-26T12:18:28.637Z,585.00
2022-08-26T12:19:18.747Z,894.38
2022-08-26T12:20:18.811Z,2874.38
2022-08-26T12:22:09.169Z,2874.38
2022-08-26T12:23:10.170Z,967.50
2022-08-26T12:24:10.145Z,1096.88
2022-08-26T12:25:10.090Z,601.88
2022-08-26T12:26:16.228Z,450.00
2022-08-26T12:27:41.624Z,405.00
2022-08-26T12:28:10.251Z,399.38
2022-08-26T12:29:19.894Z,405.00
2022-08-26T12:30:12.380Z,393.75
2022-08-26T12:31:10.059Z,371.25
2022-08-26T12:32:10.087Z,348.75
2022-08-26T12:33:22.529Z,326.25
2022-08-26T12:36:14.151Z,270.00
2022-08-26T12:37:15.072Z,264.38
2022-08-26T12:39:29.863Z,225.00
2022-08-26T12:41:21.134Z,202.50
2022-08-26T12:42:20.821Z,180.00
2022-08-26T12:45:08.591Z,112.50
2022-08-26T12:46:08.439Z,106.88
2022-08-26T12:47:08.649Z,101.25
2022-08-26T12:48:58.782Z,84.38
2022-08-26T12:49:59.695Z,78.75
2022-08-26T12:50:59.823Z,73.12
2022-08-26T12:52:00.459Z,73.12
2022-08-26T12:52:59.625Z,67.50
2022-08-26T12:53:59.626Z,61.88
2022-08-26T12:54:59.677Z,56.25
2022-08-26T12:55:59.610Z,56.25
2022-08-26T12:56:59.613Z,50.62
2022-08-26T12:57:59.646Z,45.00
2022-08-26T12:58:59.805Z,39.38
2022-08-26T12:59:59.602Z,39.38
2022-08-26T13:00:59.671Z,39.38
2022-08-26T13:01:59.898Z,45.00
2022-08-26T13:02:59.824Z,39.38
2022-08-26T13:03:59.568Z,39.38
2022-08-26T13:05:00.944Z,45.00
2022-08-26T13:05:59.753Z,45.00
2022-08-26T13:06:59.509Z,39.38
2022-08-26T13:07:59.581Z,39.38
2022-08-26T13:08:59.490Z,39.38
2022-08-26T13:09:59.534Z,45.00
2022-08-26T13:10:59.543Z,45.00
2022-08-26T13:12:08.684Z,45.00
2022-08-26T13:12:59.450Z,39.38
2022-08-26T13:13:59.475Z,45.00
2022-08-26T13:14:59.681Z,45.00
2022-08-26T13:16:01.030Z,45.00
2022-08-26T13:16:59.426Z,45.00
2022-08-26T13:17:59.442Z,45.00
2022-08-26T13:18:59.410Z,45.00
2022-08-26T13:20:03.444Z,45.00
2022-08-26T13:20:59.352Z,45.00
2022-08-26T13:22:20.361Z,45.00
2022-08-26T13:23:10.363Z,50.62
2022-08-26T13:24:02.573Z,50.62
2022-08-26T13:24:59.993Z,50.62
2022-08-26T13:25:59.333Z,56.25
2022-08-26T13:26:59.320Z,56.25
2022-08-26T13:27:59.326Z,61.88
2022-08-26T13:29:01.406Z,61.88
2022-08-26T13:30:00.005Z,73.12
2022-08-26T13:30:59.275Z,78.75
2022-08-26T13:32:33.005Z,78.75
2022-08-26T13:32:59.279Z,84.38